Accueil
METAR-TAF:

METAR-TAF

Aéroports :

Le Helder, Pays-Bas

latitude: 52-55N, longitude: 004-47E, altitude: 0 m

Observation

Le bulletin a été fait il y a 30 minutes, à 19:55 UTC
Vent 12 kt de sud-ouest
Température 15°C
Humidité 77%
Pression 1026 hPa
Visibilité 10 km ou plus
Quelques nuages à une hauteur de 2500 ft

METAR: EHKD 061955Z AUTO 22012KT 9999 FEW025 15/11 Q1026 BLU

Heure: 22:25 (20:25 UTC)

Prévision

Le bulletin a été fait il y a 4 heures et 7 minutes, à 16:18 UTC
Prévision valable du 06 à 17 UTC au 07 à 05 UTC
Vent 17 kt de sud-ouest
Visibilité 10 km ou plus
Quelques nuages à une hauteur de 4000 ft

TAF: EHKD 061618Z 0617/0705 22017KT 9999 FEW040

Observations et prévisions météorologiques de plus de 4000 aéroports (messages METAR et TAF).

Les stations disponibles sont représentées par des disques jaunes et rouges sur la carte.

Passer la souris dessus pour voir le nom de la station.

Cliquer dessus pour voir les observations et prévisions météorologiques.

Pour changer de carte: cliquez sur les boutons verts avec une croix noire pour zoomer, sur le bouton vert avec un tiret pour effectuer un zoom arrière, ou sur les flèches vertes pour les cartes adjacentes.


METAR-TAF: